createdAt,value
2018-06-24T00:01:13.475Z,6.57
2018-06-24T00:03:41.599Z,7.23
2018-06-24T00:06:09.747Z,9.90
2018-06-24T00:08:37.867Z,6.07
2018-06-24T00:11:05.951Z,8.60
2018-06-24T00:13:34.164Z,9.77
2018-06-24T00:16:02.277Z,10.70
2018-06-24T00:18:30.827Z,10.13
2018-06-24T00:20:58.936Z,8.30
2018-06-24T00:23:27.040Z,9.77
2018-06-24T00:25:55.452Z,9.10
2018-06-24T00:28:23.531Z,10.10
2018-06-24T00:30:51.645Z,7.87
2018-06-24T00:33:19.962Z,5.87
2018-06-24T00:35:48.076Z,8.73
2018-06-24T00:38:16.150Z,8.77
2018-06-24T00:40:44.302Z,4.83
2018-06-24T00:43:12.370Z,6.30
2018-06-24T00:45:40.460Z,7.97
2018-06-24T00:48:08.647Z,13.23
2018-06-24T00:50:36.754Z,15.30
2018-06-24T00:53:04.837Z,5.07
2018-06-24T00:55:32.929Z,6.47
2018-06-24T00:58:01.036Z,4.90
2018-06-24T01:00:29.122Z,8.17
2018-06-24T01:02:57.260Z,7.03
2018-06-24T01:05:25.344Z,7.30
2018-06-24T01:07:53.456Z,8.43
2018-06-24T01:10:21.554Z,5.50
2018-06-24T01:12:49.672Z,6.93
2018-06-24T01:15:17.932Z,12.43
2018-06-24T01:17:46.019Z,6.80
2018-06-24T01:20:14.123Z,4.30
2018-06-24T01:22:42.211Z,5.80
2018-06-24T01:25:10.283Z,9.97
2018-06-24T01:27:38.395Z,6.37
2018-06-24T01:30:06.560Z,6.80
2018-06-24T01:32:34.721Z,6.17
2018-06-24T01:35:02.797Z,6.33
2018-06-24T01:37:30.890Z,5.37
2018-06-24T01:39:58.959Z,6.63
2018-06-24T01:42:27.031Z,6.07
2018-06-24T01:44:55.108Z,8.43
2018-06-24T01:47:23.198Z,8.07
2018-06-24T01:49:51.247Z,5.50
2018-06-24T01:52:19.347Z,9.83
2018-06-24T01:54:47.432Z,3.70
2018-06-24T01:57:15.524Z,10.77
2018-06-24T01:59:43.623Z,9.73
2018-06-24T02:02:11.724Z,6.67
2018-06-24T02:04:39.807Z,7.30
2018-06-24T02:07:07.903Z,8.47
2018-06-24T02:09:35.994Z,10.77
2018-06-24T02:12:04.105Z,8.10
2018-06-24T02:14:32.236Z,11.50
2018-06-24T02:17:00.318Z,8.83
2018-06-24T02:19:28.421Z,10.00
2018-06-24T02:21:56.525Z,15.57
2018-06-24T02:24:24.632Z,14.83
2018-06-24T02:26:52.723Z,7.20
2018-06-24T02:29:20.805Z,6.80
2018-06-24T02:31:48.949Z,5.70
2018-06-24T02:34:17.053Z,8.30
2018-06-24T02:36:45.177Z,9.30
2018-06-24T02:39:13.255Z,7.43
2018-06-24T02:41:41.323Z,7.93
2018-06-24T02:44:09.409Z,9.70
2018-06-24T02:46:37.520Z,10.27
2018-06-24T02:49:05.817Z,7.40
2018-06-24T02:51:33.910Z,8.47
2018-06-24T02:54:02.013Z,5.73
2018-06-24T02:56:30.100Z,6.37
2018-06-24T02:58:58.195Z,7.27
2018-06-24T03:01:26.279Z,7.40
2018-06-24T03:03:54.373Z,9.20
2018-06-24T03:06:22.449Z,9.43
2018-06-24T03:08:50.542Z,6.10
2018-06-24T03:11:18.761Z,5.30
2018-06-24T03:13:46.899Z,6.63
2018-06-24T03:16:15.008Z,7.53
2018-06-24T03:18:43.228Z,6.80
2018-06-24T03:21:11.326Z,12.17
2018-06-24T03:23:39.495Z,8.30
2018-06-24T03:26:07.600Z,6.03
2018-06-24T03:28:35.804Z,8.03
2018-06-24T03:31:03.913Z,6.80
2018-06-24T03:33:32.136Z,6.23
2018-06-24T03:36:00.235Z,6.57
2018-06-24T03:38:28.445Z,6.67
2018-06-24T03:40:56.547Z,6.43
2018-06-24T03:43:24.651Z,8.80
2018-06-24T03:45:52.731Z,4.63
2018-06-24T03:48:20.835Z,9.43
2018-06-24T03:50:48.930Z,11.60
2018-06-24T03:53:17.056Z,7.33
2018-06-24T03:55:45.198Z,10.57
2018-06-24T03:58:13.306Z,7.70
2018-06-24T04:00:41.394Z,6.50
2018-06-24T04:03:09.490Z,9.83
2018-06-24T04:05:37.607Z,9.50
2018-06-24T04:08:05.805Z,5.50
2018-06-24T04:10:33.896Z,6.43
2018-06-24T04:13:01.986Z,6.87
2018-06-24T04:15:30.083Z,8.73
2018-06-24T04:17:58.197Z,6.00
2018-06-24T04:20:26.292Z,8.70
2018-06-24T04:22:54.407Z,10.67
2018-06-24T04:25:22.510Z,7.33
2018-06-24T04:27:50.605Z,15.17
2018-06-24T04:30:18.688Z,9.33
2018-06-24T04:32:46.787Z,8.10
2018-06-24T04:35:14.888Z,6.27
2018-06-24T04:37:42.972Z,9.17
2018-06-24T04:40:11.074Z,9.90
2018-06-24T04:42:39.159Z,6.77
2018-06-24T04:45:07.263Z,5.53
2018-06-24T04:47:35.364Z,12.77
2018-06-24T04:50:03.455Z,8.93
2018-06-24T04:52:31.554Z,8.83
2018-06-24T04:54:59.667Z,8.67
2018-06-24T04:57:33.477Z,9.57
2018-06-24T05:00:01.583Z,8.60
2018-06-24T05:02:29.696Z,16.73
2018-06-24T05:04:57.788Z,6.80
2018-06-24T05:07:25.872Z,8.93
2018-06-24T05:09:53.976Z,11.83
2018-06-24T05:12:22.153Z,15.33
2018-06-24T05:14:50.252Z,12.00
2018-06-24T05:17:18.368Z,8.87
2018-06-24T05:19:46.478Z,14.90
2018-06-24T05:22:14.806Z,7.63
2018-06-24T05:24:42.909Z,8.33
2018-06-24T05:27:11.007Z,16.40
2018-06-24T05:29:39.145Z,6.90
2018-06-24T05:32:07.240Z,8.53
2018-06-24T05:34:35.346Z,13.80
2018-06-24T05:37:03.444Z,7.77
2018-06-24T05:39:31.592Z,5.77
2018-06-24T05:41:59.675Z,7.97
2018-06-24T05:44:27.780Z,6.73
2018-06-24T05:46:55.876Z,13.50
2018-06-24T05:49:23.988Z,5.33
2018-06-24T05:51:52.092Z,12.20
2018-06-24T05:54:20.276Z,7.27
2018-06-24T05:56:48.372Z,9.30
2018-06-24T05:59:16.514Z,11.20
2018-06-24T06:01:44.594Z,10.20
2018-06-24T06:04:12.747Z,9.47
2018-06-24T06:06:40.867Z,14.07
2018-06-24T06:09:10.240Z,11.67
2018-06-24T06:11:38.324Z,10.57
2018-06-24T06:14:06.415Z,13.33
2018-06-24T06:16:34.519Z,9.73
2018-06-24T06:19:02.811Z,8.23
2018-06-24T06:21:31.116Z,13.10
2018-06-24T06:23:59.293Z,7.67
2018-06-24T06:26:27.429Z,10.33
2018-06-24T06:28:55.522Z,10.70
2018-06-24T06:31:23.620Z,8.17
2018-06-24T06:33:51.703Z,10.20
2018-06-24T06:36:19.779Z,7.97
2018-06-24T06:38:47.885Z,9.67
2018-06-24T06:41:15.974Z,6.37
2018-06-24T06:43:44.062Z,14.40
2018-06-24T06:46:13.480Z,7.83
2018-06-24T06:48:41.560Z,8.23
2018-06-24T06:51:10.753Z,17.63
2018-06-24T06:53:38.780Z,10.70
2018-06-24T06:56:07.339Z,9.37
2018-06-24T06:58:35.419Z,9.47
2018-06-24T07:01:03.537Z,11.80
2018-06-24T07:03:31.678Z,13.90
2018-06-24T07:05:59.771Z,11.63
2018-06-24T07:08:27.869Z,7.93
2018-06-24T07:10:55.988Z,8.23
2018-06-24T07:13:24.097Z,10.10
2018-06-24T07:15:52.267Z,14.17
2018-06-24T07:18:20.356Z,6.33
2018-06-24T07:20:48.492Z,13.40
2018-06-24T07:23:16.568Z,7.87
2018-06-24T07:25:44.678Z,11.23
2018-06-24T07:28:12.773Z,12.43
2018-06-24T07:30:40.857Z,7.63
2018-06-24T07:33:08.959Z,7.40
2018-06-24T07:35:37.622Z,12.70
2018-06-24T07:38:05.788Z,11.40
2018-06-24T07:40:33.904Z,6.83
2018-06-24T07:43:01.975Z,10.87
2018-06-24T07:45:30.069Z,13.23
2018-06-24T07:47:58.143Z,10.83
2018-06-24T07:50:26.465Z,10.20
2018-06-24T07:52:54.549Z,9.57
2018-06-24T07:55:22.633Z,7.00
2018-06-24T07:57:50.704Z,8.10
2018-06-24T08:00:18.943Z,9.67
2018-06-24T08:02:46.989Z,10.37
2018-06-24T08:05:15.129Z,11.23
2018-06-24T08:07:43.203Z,7.63
2018-06-24T08:10:11.297Z,8.30
2018-06-24T08:12:39.379Z,10.57
2018-06-24T08:15:14.662Z,16.67
2018-06-24T08:17:42.807Z,9.90
2018-06-24T08:20:10.909Z,11.83
2018-06-24T08:22:39.025Z,5.87
2018-06-24T08:25:07.075Z,8.60
2018-06-24T08:27:35.161Z,11.63
2018-06-24T08:30:03.247Z,14.40
2018-06-24T08:32:31.343Z,11.40
2018-06-24T08:34:59.430Z,13.30
2018-06-24T08:37:27.540Z,9.80
2018-06-24T08:39:55.628Z,15.93
2018-06-24T08:42:23.724Z,16.63
2018-06-24T08:44:51.804Z,10.20
2018-06-24T08:47:19.903Z,9.37
2018-06-24T08:49:48.002Z,10.67
2018-06-24T08:52:16.079Z,16.53
2018-06-24T08:54:44.315Z,12.97
2018-06-24T08:57:12.411Z,8.90
2018-06-24T08:59:40.515Z,14.13
2018-06-24T09:02:08.648Z,9.90
2018-06-24T09:04:36.732Z,11.23
2018-06-24T09:07:04.813Z,8.80
2018-06-24T09:09:32.909Z,9.50
2018-06-24T09:12:00.995Z,13.90
2018-06-24T09:14:29.071Z,9.50
2018-06-24T09:16:57.176Z,8.77
2018-06-24T09:19:25.265Z,8.90
2018-06-24T09:21:53.347Z,11.40
2018-06-24T09:24:21.414Z,8.83
2018-06-24T09:26:49.570Z,6.70
2018-06-24T09:29:17.639Z,10.70
2018-06-24T09:31:45.720Z,10.93
2018-06-24T09:34:13.823Z,9.10
2018-06-24T09:36:41.924Z,11.03
2018-06-24T09:39:11.260Z,10.77
2018-06-24T09:41:39.365Z,7.33
2018-06-24T09:44:07.463Z,7.20
2018-06-24T09:46:36.525Z,9.63
2018-06-24T09:49:04.824Z,9.97
2018-06-24T09:51:33.400Z,7.03
2018-06-24T09:54:01.511Z,10.00
2018-06-24T09:56:29.644Z,10.23
2018-06-24T09:58:57.725Z,5.93
2018-06-24T10:01:25.821Z,10.90
2018-06-24T10:03:53.899Z,7.43
2018-06-24T10:06:21.979Z,7.90
2018-06-24T10:08:50.076Z,10.90
2018-06-24T10:11:18.464Z,10.30
2018-06-24T10:13:46.585Z,7.73
2018-06-24T10:16:14.652Z,9.00
2018-06-24T10:18:42.885Z,9.43
2018-06-24T10:21:10.965Z,6.40
2018-06-24T10:23:39.057Z,9.67
2018-06-24T10:26:07.157Z,15.53
2018-06-24T10:28:35.235Z,7.30
2018-06-24T10:31:03.320Z,7.10
2018-06-24T10:33:31.408Z,9.90
2018-06-24T10:35:59.483Z,5.60
2018-06-24T10:38:27.576Z,10.50
2018-06-24T10:40:55.695Z,11.20
2018-06-24T10:43:23.833Z,7.53
2018-06-24T10:45:51.915Z,10.27
2018-06-24T10:48:21.279Z,8.60
2018-06-24T10:50:49.392Z,9.10
2018-06-24T10:53:17.510Z,5.00
2018-06-24T10:55:45.593Z,5.37
2018-06-24T10:58:13.687Z,5.67
2018-06-24T11:00:41.805Z,12.37
2018-06-24T11:03:09.903Z,7.73
2018-06-24T11:05:38.004Z,15.33
2018-06-24T11:08:06.140Z,6.10
2018-06-24T11:10:34.227Z,4.50
2018-06-24T11:13:02.328Z,7.77
2018-06-24T11:15:30.403Z,9.23
2018-06-24T11:17:58.500Z,6.17
2018-06-24T11:20:26.609Z,9.70
2018-06-24T11:22:54.716Z,7.20
2018-06-24T11:25:22.890Z,10.00
2018-06-24T11:27:50.970Z,6.30
2018-06-24T11:30:19.068Z,4.20
2018-06-24T11:32:47.157Z,8.07
2018-06-24T11:35:15.330Z,6.70
2018-06-24T11:37:43.512Z,6.00
2018-06-24T11:40:11.638Z,7.60
2018-06-24T11:42:39.766Z,5.80
2018-06-24T11:45:07.855Z,9.53
2018-06-24T11:47:35.940Z,5.23
2018-06-24T11:50:04.080Z,7.10
2018-06-24T11:52:32.296Z,4.97
2018-06-24T11:55:00.555Z,6.77
2018-06-24T11:57:28.639Z,6.40
2018-06-24T11:59:56.796Z,3.27
2018-06-24T12:02:24.898Z,7.43
2018-06-24T12:04:53.008Z,8.97
2018-06-24T12:07:21.109Z,9.97
2018-06-24T12:09:49.224Z,7.83
2018-06-24T12:12:17.815Z,7.57
2018-06-24T12:14:46.055Z,9.23
2018-06-24T12:17:14.151Z,7.73
2018-06-24T12:19:42.255Z,9.53
2018-06-24T12:22:10.346Z,6.13
2018-06-24T12:24:38.551Z,12.13
2018-06-24T12:27:06.770Z,7.60
2018-06-24T12:29:34.766Z,5.97
2018-06-24T12:32:02.925Z,4.63
2018-06-24T12:34:31.079Z,7.53
2018-06-24T12:37:09.698Z,4.83
2018-06-24T12:39:38.236Z,6.33
2018-06-24T12:42:06.473Z,6.00
2018-06-24T12:44:34.568Z,6.10
2018-06-24T12:47:02.716Z,7.37
2018-06-24T12:49:30.927Z,3.53
2018-06-24T12:51:59.156Z,3.70
2018-06-24T12:54:27.354Z,5.80
2018-06-24T12:56:55.572Z,4.87
2018-06-24T12:59:24.118Z,5.53
2018-06-24T13:01:51.993Z,6.73
2018-06-24T13:04:20.112Z,7.77
2018-06-24T13:06:48.224Z,6.63
2018-06-24T13:09:16.324Z,8.03
2018-06-24T13:11:44.590Z,4.10
2018-06-24T13:14:12.885Z,4.00
2018-06-24T13:16:40.900Z,6.60
2018-06-24T13:19:09.039Z,5.53
2018-06-24T13:21:37.136Z,2.37
2018-06-24T13:24:05.339Z,4.10
2018-06-24T13:26:33.441Z,3.40
2018-06-24T13:29:01.573Z,3.37
2018-06-24T13:31:29.693Z,5.47
2018-06-24T13:33:57.819Z,5.70
2018-06-24T13:36:25.993Z,4.30
2018-06-24T13:38:54.106Z,3.37
2018-06-24T13:41:22.219Z,2.97
2018-06-24T13:43:50.335Z,4.83
2018-06-24T13:46:18.433Z,5.47
2018-06-24T13:48:46.557Z,4.03
2018-06-24T13:51:14.679Z,3.20
2018-06-24T13:53:42.864Z,2.90
2018-06-24T13:56:10.988Z,4.20
2018-06-24T13:58:39.130Z,9.27
2018-06-24T14:01:07.252Z,4.40
2018-06-24T14:03:35.340Z,6.30
2018-06-24T14:06:03.510Z,5.93
2018-06-24T14:08:31.575Z,5.80
2018-06-24T14:10:59.701Z,4.00
2018-06-24T14:13:27.814Z,6.27
2018-06-24T14:15:55.927Z,5.23
2018-06-24T14:18:24.027Z,6.10
2018-06-24T14:20:52.123Z,5.63
2018-06-24T14:23:20.237Z,6.17
2018-06-24T14:25:48.349Z,12.30
2018-06-24T14:28:16.871Z,7.13
2018-06-24T14:30:44.989Z,7.67
2018-06-24T14:33:13.079Z,4.70
2018-06-24T14:35:41.173Z,9.27
2018-06-24T14:38:09.299Z,7.20
2018-06-24T14:40:37.403Z,4.80
2018-06-24T14:43:05.900Z,5.10
2018-06-24T14:45:34.043Z,4.13
2018-06-24T14:48:02.124Z,5.87
2018-06-24T14:50:30.404Z,4.50
2018-06-24T14:52:58.511Z,3.60
2018-06-24T14:55:26.979Z,4.10
2018-06-24T14:57:55.360Z,2.97
2018-06-24T15:00:23.560Z,3.97
2018-06-24T15:02:51.672Z,4.40
2018-06-24T15:05:20.352Z,2.27
2018-06-24T15:07:48.572Z,4.00
2018-06-24T15:10:16.723Z,4.63
2018-06-24T15:12:44.818Z,4.83
2018-06-24T15:15:12.932Z,5.47
2018-06-24T15:17:41.039Z,2.47
2018-06-24T15:20:09.193Z,2.43
2018-06-24T15:22:37.287Z,8.13
2018-06-24T15:25:05.486Z,3.27
2018-06-24T15:27:33.632Z,2.60
2018-06-24T15:30:01.737Z,4.37
2018-06-24T15:32:29.853Z,3.03
2018-06-24T15:34:57.964Z,2.47
2018-06-24T15:37:26.080Z,1.87
2018-06-24T15:39:54.218Z,2.20
2018-06-24T15:42:22.327Z,2.10
2018-06-24T15:45:16.039Z,2.43
2018-06-24T15:47:44.333Z,3.10
2018-06-24T15:50:12.452Z,4.63
2018-06-24T15:52:41.465Z,5.27
2018-06-24T15:55:09.271Z,3.30
2018-06-24T15:57:37.387Z,2.70
2018-06-24T16:00:05.513Z,1.70
2018-06-24T16:02:37.562Z,1.60
2018-06-24T16:05:05.737Z,1.87
2018-06-24T16:07:33.892Z,2.87
2018-06-24T16:10:02.085Z,1.57
2018-06-24T16:12:30.232Z,3.83
2018-06-24T16:14:58.428Z,1.83
2018-06-24T16:17:26.861Z,1.47
2018-06-24T16:19:55.285Z,3.00
2018-06-24T16:22:23.403Z,1.50
2018-06-24T16:24:51.587Z,1.20
2018-06-24T16:27:19.748Z,1.90
2018-06-24T16:29:47.893Z,1.37
2018-06-24T16:32:16.023Z,1.70
2018-06-24T16:34:44.124Z,6.73
2018-06-24T16:37:12.199Z,2.27
2018-06-24T16:39:41.388Z,2.90
2018-06-24T16:42:09.556Z,4.60
2018-06-24T16:44:37.704Z,2.20
2018-06-24T16:47:06.073Z,1.70
2018-06-24T16:49:34.639Z,1.70
2018-06-24T16:52:02.869Z,4.13
2018-06-24T16:54:31.061Z,2.43
2018-06-24T16:56:59.346Z,2.40
2018-06-24T16:59:27.244Z,5.10
2018-06-24T17:01:55.401Z,2.73
2018-06-24T17:04:23.495Z,5.40
2018-06-24T17:06:51.672Z,1.70
2018-06-24T17:09:19.768Z,1.57
2018-06-24T17:11:47.877Z,2.70
2018-06-24T17:14:16.004Z,1.60
2018-06-24T17:16:44.080Z,1.90
2018-06-24T17:19:12.201Z,1.87
2018-06-24T17:21:40.376Z,2.47
2018-06-24T17:24:08.514Z,2.50
2018-06-24T17:26:36.619Z,1.63
2018-06-24T17:29:04.764Z,1.73
2018-06-24T17:31:32.900Z,3.00
2018-06-24T17:34:01.016Z,3.10
2018-06-24T17:36:29.170Z,2.23
2018-06-24T17:38:57.291Z,2.00
2018-06-24T17:41:25.299Z,6.90
2018-06-24T17:43:53.420Z,3.20
2018-06-24T17:46:21.522Z,2.80
2018-06-24T17:48:49.664Z,2.10
2018-06-24T17:51:17.773Z,1.80
2018-06-24T17:53:45.897Z,2.00
2018-06-24T17:56:14.019Z,2.23
2018-06-24T17:58:42.191Z,2.90
2018-06-24T18:01:10.392Z,2.13
2018-06-24T18:03:38.601Z,2.30
2018-06-24T18:06:07.905Z,3.60
2018-06-24T18:08:36.721Z,1.70
2018-06-24T18:11:04.864Z,1.50
2018-06-24T18:13:32.979Z,1.97
2018-06-24T18:16:01.075Z,2.10
2018-06-24T18:18:29.179Z,1.80
2018-06-24T18:20:57.305Z,2.20
2018-06-24T18:23:25.465Z,2.13
2018-06-24T18:25:53.598Z,1.80
2018-06-24T18:28:21.696Z,1.60
2018-06-24T18:30:50.745Z,2.73
2018-06-24T18:33:18.943Z,1.60
2018-06-24T18:35:47.049Z,1.60
2018-06-24T18:38:22.915Z,1.67
2018-06-24T18:40:51.151Z,2.37
2018-06-24T18:43:38.303Z,1.93
2018-06-24T18:46:06.527Z,3.80
2018-06-24T18:48:34.616Z,2.33
2018-06-24T18:51:02.728Z,2.10
2018-06-24T18:53:30.823Z,5.47
2018-06-24T18:55:58.940Z,2.10
2018-06-24T18:58:27.188Z,2.23
2018-06-24T19:00:55.290Z,1.80
2018-06-24T19:03:23.524Z,1.83
2018-06-24T19:05:51.637Z,1.73
2018-06-24T19:08:19.735Z,1.50
2018-06-24T19:10:47.862Z,1.60
2018-06-24T19:13:16.893Z,1.47
2018-06-24T19:15:45.007Z,1.30
2018-06-24T19:18:13.091Z,1.50
2018-06-24T19:20:41.266Z,1.17
2018-06-24T19:23:09.386Z,1.80
2018-06-24T19:25:37.496Z,0.93
2018-06-24T19:28:05.900Z,1.63
2018-06-24T19:30:34.008Z,1.57
2018-06-24T19:33:02.156Z,1.50
2018-06-24T19:35:30.271Z,1.20
2018-06-24T19:37:58.423Z,1.60
2018-06-24T19:40:26.507Z,1.10
2018-06-24T19:42:54.623Z,1.80
2018-06-24T19:45:22.711Z,1.77
2018-06-24T19:47:50.809Z,2.00
2018-06-24T19:50:18.891Z,1.67
2018-06-24T19:52:47.109Z,2.90
2018-06-24T19:55:15.333Z,2.57
2018-06-24T19:57:43.467Z,5.80
2018-06-24T20:00:11.546Z,2.63
2018-06-24T20:02:43.297Z,3.17
2018-06-24T20:05:30.039Z,3.00
2018-06-24T20:07:58.343Z,3.57
2018-06-24T20:10:26.443Z,3.93
2018-06-24T20:12:54.566Z,3.87
2018-06-24T20:15:22.659Z,3.53
2018-06-24T20:17:50.774Z,4.10
2018-06-24T20:20:18.914Z,4.77
2018-06-24T20:22:47.033Z,4.43
2018-06-24T20:25:14.899Z,5.50
2018-06-24T20:27:43.009Z,5.53
2018-06-24T20:30:11.091Z,10.50
2018-06-24T20:32:39.225Z,5.20
2018-06-24T20:35:07.107Z,7.77
2018-06-24T20:37:35.232Z,9.10
2018-06-24T20:40:03.332Z,6.80
2018-06-24T20:42:31.419Z,6.70
2018-06-24T20:44:59.554Z,6.20
2018-06-24T20:47:27.775Z,5.97
2018-06-24T20:49:55.873Z,6.33
2018-06-24T20:52:23.963Z,6.20
2018-06-24T20:54:52.065Z,7.07
2018-06-24T20:57:20.228Z,5.10
2018-06-24T20:59:49.004Z,6.57
2018-06-24T21:02:17.117Z,6.03
2018-06-24T21:04:45.260Z,7.33
2018-06-24T21:07:13.359Z,7.60
2018-06-24T21:09:41.439Z,9.47
2018-06-24T21:12:09.576Z,7.20
2018-06-24T21:14:37.796Z,6.87
2018-06-24T21:17:05.944Z,7.90
2018-06-24T21:19:34.216Z,6.37
2018-06-24T21:22:02.344Z,8.10
2018-06-24T21:24:35.137Z,7.13
2018-06-24T21:27:03.418Z,9.10
2018-06-24T21:29:33.640Z,6.60
2018-06-24T21:32:01.846Z,6.30
2018-06-24T21:34:29.997Z,7.10
2018-06-24T21:36:58.682Z,6.70
2018-06-24T21:39:27.416Z,6.53
2018-06-24T21:42:03.297Z,6.33
2018-06-24T21:44:31.852Z,6.83
2018-06-24T21:47:00.422Z,6.70
2018-06-24T21:49:28.681Z,5.70
2018-06-24T21:51:56.790Z,6.87
2018-06-24T21:54:25.264Z,5.83
2018-06-24T21:56:53.442Z,6.43
2018-06-24T21:59:22.916Z,9.30
2018-06-24T22:01:51.028Z,5.10
2018-06-24T22:04:19.158Z,4.20
2018-06-24T22:06:47.264Z,5.27
2018-06-24T22:09:15.160Z,6.93
2018-06-24T22:11:43.260Z,6.27
2018-06-24T22:14:11.380Z,4.70
2018-06-24T22:16:40.182Z,8.13
2018-06-24T22:19:08.641Z,4.63
2018-06-24T22:21:36.809Z,10.20
2018-06-24T22:24:04.943Z,5.93
2018-06-24T22:26:33.036Z,8.47
2018-06-24T22:29:01.126Z,6.77
2018-06-24T22:31:29.224Z,4.50
2018-06-24T22:33:57.338Z,5.30
2018-06-24T22:36:28.795Z,6.13
2018-06-24T22:38:56.875Z,5.47
2018-06-24T22:41:25.191Z,6.73
2018-06-24T22:43:53.281Z,7.00
2018-06-24T22:46:21.411Z,11.73
2018-06-24T22:48:49.584Z,7.47
2018-06-24T22:51:17.733Z,8.30
2018-06-24T22:53:45.868Z,9.67
2018-06-24T22:56:13.999Z,7.30
2018-06-24T22:58:43.718Z,8.30
2018-06-24T23:01:11.812Z,11.17
2018-06-24T23:03:39.980Z,10.57
2018-06-24T23:06:08.107Z,7.23
2018-06-24T23:08:36.208Z,8.97
2018-06-24T23:11:04.412Z,7.50
2018-06-24T23:13:32.541Z,7.30
2018-06-24T23:16:01.578Z,7.73
2018-06-24T23:18:29.757Z,7.57
2018-06-24T23:20:57.908Z,6.63
2018-06-24T23:23:26.080Z,9.73
2018-06-24T23:25:54.232Z,12.40
2018-06-24T23:28:22.325Z,10.13
2018-06-24T23:30:50.524Z,14.50
2018-06-24T23:33:18.639Z,11.10
2018-06-24T23:35:46.747Z,6.67
2018-06-24T23:38:14.839Z,6.27
2018-06-24T23:40:43.017Z,6.23
2018-06-24T23:43:11.113Z,8.40
2018-06-24T23:45:39.225Z,9.40
2018-06-24T23:48:07.419Z,10.43
2018-06-24T23:50:35.528Z,8.80
2018-06-24T23:53:03.665Z,8.33
2018-06-24T23:55:31.776Z,9.80
2018-06-24T23:57:59.873Z,12.23
